Time;durP1;ratioP1;P1;durP2;ratioP2;P2;SDS_P1;SDS_P2;PMS_P1;PMS_P2;Temp;Humidity;BMP_temperature;BMP_pressure;BME280_temperature;BME280_humidity;BME280_pressure;Samples;Min_cycle;Max_cycle;Signal;HPM_P1;HPM_P2
2024/02/11 00:00:10;;;;;;;9.80;6.30;;;;;;;;;;706089;27;997;-69
2024/02/11 00:00:31;;;;;;;8.50;6.40;;;;;;;;;;702761;27;1697;-69
2024/02/11 00:00:51;;;;;;;8.50;6.28;;;;;;;;;;704342;27;1265;-69
2024/02/11 00:01:12;;;;;;;9.47;6.03;;;;;;;;;;705043;27;4362;-69
2024/02/11 00:01:34;;;;;;;9.45;6.30;;;;;;;;;;699177;28;1131;-68
2024/02/11 00:01:54;;;;;;;8.70;6.00;;;;;;;;;;700504;28;1254;-68
2024/02/11 00:02:15;;;;;;;8.03;6.00;;;;;;;;;;702471;28;971;-67
2024/02/11 00:02:37;;;;;;;8.40;6.43;;;;;;;;;;699524;28;2431;-67
2024/02/11 00:02:57;;;;;;;9.85;6.80;;;;;;;;;;701146;28;966;-68
2024/02/11 00:03:27;;;;;;;8.97;6.37;;;;;;;;;;696390;28;1799;-69
2024/02/11 00:03:47;;;;;;;9.63;6.38;;;;;;;;;;701915;28;1407;-68
2024/02/11 00:04:07;;;;;;;8.77;6.10;;;;;;;;;;702590;28;818;-68
2024/02/11 00:04:28;;;;;;;9.30;6.20;;;;;;;;;;699475;28;4420;-68
2024/02/11 00:04:48;;;;;;;10.50;6.43;;;;;;;;;;701683;28;880;-68
2024/02/11 00:05:09;;;;;;;9.43;6.47;;;;;;;;;;702804;28;965;-68
2024/02/11 00:05:30;;;;;;;9.43;6.35;;;;;;;;;;702205;28;1710;-67
2024/02/11 00:05:50;;;;;;;8.80;6.40;;;;;;;;;;705546;27;895;-67
2024/02/11 00:06:12;;;;;;;8.13;5.90;;;;;;;;;;705508;27;865;-68
2024/02/11 00:06:33;;;;;;;8.55;6.05;;;;;;;;;;702092;27;2475;-67
2024/02/11 00:06:54;;;;;;;8.43;6.47;;;;;;;;;;704402;27;1248;-68
2024/02/11 00:07:14;;;;;;;8.57;6.00;;;;;;;;;;700877;28;4414;-68
2024/02/11 00:07:37;;;;;;;8.83;6.10;;;;;;;;;;697866;28;1713;-67
2024/02/11 00:07:57;;;;;;;8.57;6.13;;;;;;;;;;701717;28;864;-68
2024/02/11 00:08:19;;;;;;;8.00;5.90;;;;;;;;;;699284;28;1928;-68
2024/02/11 00:08:40;;;;;;;7.57;6.10;;;;;;;;;;699106;28;1206;-69
2024/02/11 00:09:00;;;;;;;9.88;6.32;;;;;;;;;;699157;28;3738;-69
2024/02/11 00:09:21;;;;;;;8.83;5.83;;;;;;;;;;697377;28;1740;-68
2024/02/11 00:09:41;;;;;;;7.65;5.70;;;;;;;;;;700017;28;921;-67
2024/02/11 00:10:02;;;;;;;8.80;5.73;;;;;;;;;;701676;28;892;-69
2024/02/11 00:10:23;;;;;;;8.35;5.80;;;;;;;;;;699956;28;4528;-67
2024/02/11 00:10:43;;;;;;;8.53;5.73;;;;;;;;;;705587;27;935;-67
2024/02/11 00:11:03;;;;;;;7.67;5.57;;;;;;;;;;703443;28;849;-68
2024/02/11 00:11:24;;;;;;;7.15;5.45;;;;;;;;;;702789;27;1668;-69
2024/02/11 00:11:44;;;;;;;8.73;5.83;;;;;;;;;;704804;27;1394;-68
2024/02/11 00:12:05;;;;;;;7.72;5.60;;;;;;;;;;704625;27;1014;-68
2024/02/11 00:12:25;;;;;;;7.70;5.73;;;;;;;;;;701485;28;1764;-68
2024/02/11 00:12:45;;;;;;;7.90;5.60;;;;;;;;;;705089;27;745;-68
2024/02/11 00:13:06;;;;;;;8.02;5.57;;;;;;;;;;703851;27;904;-68
2024/02/11 00:13:26;;;;;;;7.60;5.97;;;;;;;;;;699958;28;4240;-67
2024/02/11 00:13:47;;;;;;;8.18;5.82;;;;;;;;;;700621;28;1401;-68
2024/02/11 00:14:07;;;;;;;7.33;5.57;;;;;;;;;;701807;28;776;-68
2024/02/11 00:14:27;;;;;;;7.60;5.55;;;;;;;;;;700473;28;1742;-68
2024/02/11 00:14:47;;;;;;;8.77;5.70;;;;;;;;;;700752;28;1313;-67
2024/02/11 00:15:08;;;;;;;8.27;5.57;;;;;;;;;;701349;28;1445;-68
2024/02/11 00:15:28;;;;;;;7.18;5.53;;;;;;;;;;704255;28;1524;-69
2024/02/11 00:15:49;;;;;;;7.60;5.47;;;;;;;;;;705805;27;1210;-68
2024/02/11 00:16:10;;;;;;;8.05;5.43;;;;;;;;;;704615;27;4684;-67
2024/02/11 00:16:30;;;;;;;7.25;5.20;;;;;;;;;;703142;27;2329;-68
2024/02/11 00:16:50;;;;;;;8.67;5.70;;;;;;;;;;704975;27;1419;-69
2024/02/11 00:17:10;;;;;;;8.90;5.33;;;;;;;;;;704744;27;958;-68
2024/02/11 00:17:32;;;;;;;8.00;5.63;;;;;;;;;;702785;27;1831;-68
2024/02/11 00:17:53;;;;;;;8.10;5.43;;;;;;;;;;705492;27;967;-68
2024/02/11 00:18:14;;;;;;;7.65;5.30;;;;;;;;;;704679;27;1241;-68
2024/02/11 00:18:35;;;;;;;8.10;5.43;;;;;;;;;;702238;28;1811;-69
2024/02/11 00:18:56;;;;;;;7.07;5.30;;;;;;;;;;700605;28;1393;-69
2024/02/11 00:19:17;;;;;;;7.22;5.20;;;;;;;;;;700483;28;4926;-68
2024/02/11 00:19:38;;;;;;;7.90;5.30;;;;;;;;;;700150;28;1784;-68
2024/02/11 00:20:02;;;;;;;8.05;5.55;;;;;;;;;;701369;28;1046;-68
2024/02/11 00:20:22;;;;;;;7.90;5.40;;;;;;;;;;698898;28;1950;-68
2024/02/11 00:20:42;;;;;;;7.80;5.53;;;;;;;;;;701644;28;1244;-68
2024/02/11 00:21:04;;;;;;;7.37;5.20;;;;;;;;;;702421;28;1384;-68
2024/02/11 00:21:24;;;;;;;7.45;5.45;;;;;;;;;;701992;28;1293;-69
2024/02/11 00:21:44;;;;;;;7.82;5.60;;;;;;;;;;704843;28;789;-68
2024/02/11 00:22:05;;;;;;;8.37;5.47;;;;;;;;;;704593;28;975;-68
2024/02/11 00:22:25;;;;;;;7.23;5.20;;;;;;;;;;700301;28;4391;-67
2024/02/11 00:22:45;;;;;;;6.47;5.30;;;;;;;;;;703809;27;904;-68
2024/02/11 00:23:06;;;;;;;6.67;5.50;;;;;;;;;;703341;27;1299;-69
2024/02/11 00:23:26;;;;;;;8.00;5.55;;;;;;;;;;701488;28;2256;-69
2024/02/11 00:23:46;;;;;;;7.60;5.37;;;;;;;;;;704861;27;1192;-68
2024/02/11 00:24:07;;;;;;;6.93;5.38;;;;;;;;;;705151;27;1038;-69
2024/02/11 00:24:29;;;;;;;7.83;5.53;;;;;;;;;;702358;27;1941;-68
2024/02/11 00:24:50;;;;;;;7.20;5.63;;;;;;;;;;703396;28;1131;-68
2024/02/11 00:25:10;;;;;;;7.03;5.50;;;;;;;;;;703994;27;4275;-68
2024/02/11 00:25:31;;;;;;;8.18;5.20;;;;;;;;;;703265;28;1725;-68
2024/02/11 00:25:53;;;;;;;7.90;5.70;;;;;;;;;;704796;27;1064;-68
2024/02/11 00:26:13;;;;;;;7.90;5.50;;;;;;;;;;705955;27;966;-68
2024/02/11 00:26:33;;;;;;;8.10;5.53;;;;;;;;;;700304;28;1588;-67
2024/02/11 00:26:54;;;;;;;8.05;5.30;;;;;;;;;;703114;28;1265;-68
2024/02/11 00:27:14;;;;;;;8.23;5.43;;;;;;;;;;703431;28;831;-69
2024/02/11 00:27:34;;;;;;;7.07;5.37;;;;;;;;;;697806;28;2179;-68
2024/02/11 00:27:58;;;;;;;7.97;5.22;;;;;;;;;;699363;28;923;-69
2024/02/11 00:28:21;;;;;;;8.68;5.53;;;;;;;;;;695309;28;4419;-67
2024/02/11 00:28:41;;;;;;;8.52;5.35;;;;;;;;;;699263;28;809;-68
2024/02/11 00:29:02;;;;;;;7.50;5.05;;;;;;;;;;695435;28;1030;-69
2024/02/11 00:29:22;;;;;;;7.40;5.17;;;;;;;;;;695539;28;1285;-68
2024/02/11 00:29:42;;;;;;;7.55;5.75;;;;;;;;;;695632;28;1323;-68
2024/02/11 00:30:03;;;;;;;7.40;5.70;;;;;;;;;;697004;28;1306;-68
2024/02/11 00:30:23;;;;;;;7.77;5.40;;;;;;;;;;697121;28;1525;-68
2024/02/11 00:30:43;;;;;;;7.97;5.43;;;;;;;;;;698903;28;975;-68
2024/02/11 00:31:04;;;;;;;6.90;5.60;;;;;;;;;;702954;28;812;-67
2024/02/11 00:31:25;;;;;;;7.10;5.30;;;;;;;;;;699232;28;4235;-68
2024/02/11 00:31:45;;;;;;;7.40;5.20;;;;;;;;;;704090;28;930;-67
2024/02/11 00:32:06;;;;;;;8.33;5.60;;;;;;;;;;703523;28;831;-68
2024/02/11 00:32:26;;;;;;;8.32;5.50;;;;;;;;;;699836;28;1999;-69
2024/02/11 00:32:47;;;;;;;7.47;5.28;;;;;;;;;;702260;28;1300;-67
2024/02/11 00:33:07;;;;;;;8.07;5.50;;;;;;;;;;700379;28;951;-69
2024/02/11 00:33:27;;;;;;;7.97;5.23;;;;;;;;;;700660;28;1446;-69
2024/02/11 00:33:47;;;;;;;7.70;5.30;;;;;;;;;;701346;28;770;-68
2024/02/11 00:34:08;;;;;;;7.47;5.45;;;;;;;;;;702928;28;939;-68
2024/02/11 00:34:31;;;;;;;7.75;5.57;;;;;;;;;;702711;27;4292;-69
2024/02/11 00:34:51;;;;;;;8.43;5.40;;;;;;;;;;700197;28;1261;-69
2024/02/11 00:35:15;;;;;;;8.70;5.35;;;;;;;;;;702605;28;832;-67
2024/02/11 00:35:35;;;;;;;9.13;5.35;;;;;;;;;;697979;28;1443;-68
2024/02/11 00:35:59;;;;;;;8.82;5.20;;;;;;;;;;700327;28;781;-68
2024/02/11 00:36:20;;;;;;;8.25;5.65;;;;;;;;;;700633;28;1757;-67
2024/02/11 00:36:40;;;;;;;7.50;5.60;;;;;;;;;;702428;28;856;-67
2024/02/11 00:37:01;;;;;;;7.20;5.15;;;;;;;;;;703692;28;919;-67
2024/02/11 00:37:21;;;;;;;7.53;5.10;;;;;;;;;;703547;27;4408;-67
2024/02/11 00:37:42;;;;;;;6.80;5.20;;;;;;;;;;704772;28;1256;-68
2024/02/11 00:38:02;;;;;;;6.97;5.07;;;;;;;;;;704204;28;1241;-68
2024/02/11 00:38:23;;;;;;;6.90;5.13;;;;;;;;;;703736;27;1879;-68
2024/02/11 00:38:43;;;;;;;7.18;5.38;;;;;;;;;;705224;28;834;-68
2024/02/11 00:39:05;;;;;;;7.73;5.50;;;;;;;;;;705496;27;1240;-67
2024/02/11 00:39:25;;;;;;;7.05;5.18;;;;;;;;;;701575;28;2156;-68
2024/02/11 00:39:45;;;;;;;9.47;5.40;;;;;;;;;;704364;27;953;-68
2024/02/11 00:40:06;;;;;;;9.50;5.50;;;;;;;;;;704597;28;848;-68
2024/02/11 00:40:26;;;;;;;7.20;5.30;;;;;;;;;;702463;27;4221;-67
2024/02/11 00:40:47;;;;;;;7.57;5.00;;;;;;;;;;703971;28;827;-68
2024/02/11 00:41:07;;;;;;;6.22;4.88;;;;;;;;;;703870;28;1344;-68
2024/02/11 00:41:28;;;;;;;6.40;4.80;;;;;;;;;;701671;28;1465;-68
2024/02/11 00:41:48;;;;;;;7.78;4.95;;;;;;;;;;704069;28;903;-68
2024/02/11 00:42:09;;;;;;;8.32;5.03;;;;;;;;;;703063;28;4677;-68
2024/02/11 00:42:29;;;;;;;7.60;5.30;;;;;;;;;;696639;28;1436;-67
2024/02/11 00:42:49;;;;;;;7.73;5.40;;;;;;;;;;698536;28;858;-69
2024/02/11 00:43:09;;;;;;;7.55;5.38;;;;;;;;;;698860;28;4445;-68
2024/02/11 00:43:30;;;;;;;7.43;5.40;;;;;;;;;;699323;28;1860;-68
2024/02/11 00:43:50;;;;;;;7.13;5.17;;;;;;;;;;701489;28;864;-68
2024/02/11 00:44:12;;;;;;;7.80;5.30;;;;;;;;;;702108;28;1359;-68
2024/02/11 00:44:32;;;;;;;7.55;5.30;;;;;;;;;;700334;28;1972;-67
2024/02/11 00:44:52;;;;;;;7.47;5.25;;;;;;;;;;703288;28;1008;-68
2024/02/11 00:45:13;;;;;;;8.60;5.40;;;;;;;;;;698711;28;837;-68
2024/02/11 00:45:35;;;;;;;7.70;5.30;;;;;;;;;;699729;28;1548;-68
2024/02/11 00:45:56;;;;;;;7.60;5.70;;;;;;;;;;701626;28;1145;-68
2024/02/11 00:46:16;;;;;;;7.57;5.40;;;;;;;;;;702532;28;4349;-68
2024/02/11 00:46:36;;;;;;;7.87;5.40;;;;;;;;;;700674;28;2451;-68
2024/02/11 00:46:57;;;;;;;7.97;5.20;;;;;;;;;;701432;28;952;-67
2024/02/11 00:47:17;;;;;;;7.60;5.07;;;;;;;;;;701549;28;1403;-68
2024/02/11 00:47:40;;;;;;;7.47;5.33;;;;;;;;;;699916;28;1704;-69
2024/02/11 00:48:03;;;;;;;7.43;5.30;;;;;;;;;;705617;28;911;-69
2024/02/11 00:48:23;;;;;;;7.43;5.18;;;;;;;;;;704105;27;1769;-69
2024/02/11 00:48:46;;;;;;;7.93;5.50;;;;;;;;;;705661;28;776;-68
2024/02/11 00:49:08;;;;;;;7.53;5.18;;;;;;;;;;705628;28;1169;-69
2024/02/11 00:49:31;;;;;;;7.75;5.22;;;;;;;;;;703493;28;4571;-69
2024/02/11 00:49:52;;;;;;;7.18;5.22;;;;;;;;;;699465;28;963;-68
2024/02/11 00:50:13;;;;;;;7.65;4.90;;;;;;;;;;701696;28;1281;-68
2024/02/11 00:50:34;;;;;;;7.78;5.03;;;;;;;;;;699639;28;1530;-68
2024/02/11 00:50:54;;;;;;;6.60;4.93;;;;;;;;;;699239;28;886;-70
2024/02/11 00:51:14;;;;;;;7.37;4.83;;;;;;;;;;699175;28;892;-68
2024/02/11 00:51:35;;;;;;;7.40;4.80;;;;;;;;;;697872;28;1912;-69
2024/02/11 00:51:55;;;;;;;7.13;5.03;;;;;;;;;;701265;28;892;-70
2024/02/11 00:52:15;;;;;;;7.90;5.05;;;;;;;;;;699994;28;4517;-68
2024/02/11 00:52:36;;;;;;;8.40;5.17;;;;;;;;;;700163;28;1781;-68
2024/02/11 00:52:56;;;;;;;7.67;5.20;;;;;;;;;;705051;28;856;-68
2024/02/11 00:53:16;;;;;;;6.60;4.93;;;;;;;;;;706545;28;805;-68
2024/02/11 00:53:36;;;;;;;6.50;4.70;;;;;;;;;;701031;28;1227;-70
2024/02/11 00:53:57;;;;;;;7.37;5.13;;;;;;;;;;703578;28;1412;-68
2024/02/11 00:54:17;;;;;;;7.13;4.97;;;;;;;;;;704853;28;987;-68
2024/02/11 00:54:37;;;;;;;6.90;4.87;;;;;;;;;;699819;28;1855;-69
2024/02/11 00:54:58;;;;;;;8.27;5.15;;;;;;;;;;701243;28;805;-67
2024/02/11 00:55:21;;;;;;;7.20;4.93;;;;;;;;;;700665;28;4375;-69
2024/02/11 00:55:41;;;;;;;6.70;4.97;;;;;;;;;;701330;28;1318;-68
2024/02/11 00:56:02;;;;;;;7.07;5.00;;;;;;;;;;701601;28;871;-68
2024/02/11 00:56:22;;;;;;;7.10;4.90;;;;;;;;;;700627;28;1030;-68
2024/02/11 00:56:42;;;;;;;7.15;4.90;;;;;;;;;;704109;28;1002;-69
2024/02/11 00:57:04;;;;;;;7.07;5.00;;;;;;;;;;704600;28;1261;-67
2024/02/11 00:57:24;;;;;;;6.82;4.68;;;;;;;;;;702071;28;2095;-68
2024/02/11 00:57:44;;;;;;;7.83;4.80;;;;;;;;;;701397;28;864;-67
2024/02/11 00:58:04;;;;;;;7.88;4.75;;;;;;;;;;701842;28;999;-68
2024/02/11 00:58:25;;;;;;;7.33;4.90;;;;;;;;;;699926;28;4291;-69
2024/02/11 00:58:45;;;;;;;7.07;4.97;;;;;;;;;;701264;28;1168;-68
2024/02/11 00:59:05;;;;;;;6.43;4.90;;;;;;;;;;701188;28;876;-69
2024/02/11 00:59:26;;;;;;;6.20;4.90;;;;;;;;;;704187;28;1455;-68
2024/02/11 00:59:46;;;;;;;6.40;4.93;;;;;;;;;;703279;28;1226;-68
2024/02/11 01:00:09;;;;;;;6.45;4.90;;;;;;;;;;703884;28;1078;-67
2024/02/11 01:00:30;;;;;;;6.75;4.85;;;;;;;;;;702884;28;1725;-69
2024/02/11 01:00:51;;;;;;;7.35;4.63;;;;;;;;;;704514;28;805;-67
2024/02/11 01:01:11;;;;;;;8.27;5.03;;;;;;;;;;704940;28;4467;-67
2024/02/11 01:01:31;;;;;;;7.03;4.87;;;;;;;;;;703087;28;1969;-68
2024/02/11 01:01:52;;;;;;;6.17;4.60;;;;;;;;;;706237;28;1170;-68
2024/02/11 01:02:12;;;;;;;6.63;4.47;;;;;;;;;;705302;28;892;-67
2024/02/11 01:02:32;;;;;;;6.77;4.80;;;;;;;;;;704011;28;2209;-67
2024/02/11 01:02:52;;;;;;;8.23;4.93;;;;;;;;;;704109;28;1262;-68
2024/02/11 01:03:13;;;;;;;8.10;5.40;;;;;;;;;;704129;28;959;-68
2024/02/11 01:03:35;;;;;;;7.90;5.13;;;;;;;;;;702577;28;2116;-69
2024/02/11 01:03:58;;;;;;;6.78;5.13;;;;;;;;;;704655;28;856;-67
2024/02/11 01:04:18;;;;;;;7.97;5.03;;;;;;;;;;705180;28;4501;-68
2024/02/11 01:04:39;;;;;;;7.97;5.10;;;;;;;;;;697872;28;2447;-68
2024/02/11 01:04:59;;;;;;;6.72;4.90;;;;;;;;;;700634;28;1218;-68
2024/02/11 01:05:21;;;;;;;6.63;4.90;;;;;;;;;;700211;28;4926;-67
2024/02/11 01:05:44;;;;;;;6.63;4.93;;;;;;;;;;701090;28;1209;-68
2024/02/11 01:06:05;;;;;;;7.82;4.65;;;;;;;;;;700030;28;884;-68
2024/02/11 01:06:25;;;;;;;6.70;4.63;;;;;;;;;;702554;28;1714;-69
2024/02/11 01:06:45;;;;;;;7.37;4.93;;;;;;;;;;705047;28;772;-67
2024/02/11 01:07:06;;;;;;;7.93;4.87;;;;;;;;;;706136;28;1459;-67
2024/02/11 01:07:26;;;;;;;7.13;4.60;;;;;;;;;;703753;28;4219;-68
2024/02/11 01:07:46;;;;;;;7.03;4.80;;;;;;;;;;704692;28;1296;-67
2024/02/11 01:08:06;;;;;;;6.50;4.67;;;;;;;;;;703599;28;1319;-67
2024/02/11 01:08:27;;;;;;;6.23;4.67;;;;;;;;;;702936;28;1849;-69
2024/02/11 01:08:49;;;;;;;6.85;4.90;;;;;;;;;;701924;28;1349;-67
2024/02/11 01:09:09;;;;;;;6.45;4.80;;;;;;;;;;701351;28;1451;-68
2024/02/11 01:09:31;;;;;;;6.60;4.47;;;;;;;;;;700222;28;974;-67
2024/02/11 01:09:51;;;;;;;6.70;4.70;;;;;;;;;;701807;28;908;-67
2024/02/11 01:10:12;;;;;;;7.27;4.97;;;;;;;;;;701266;28;4440;-67
2024/02/11 01:10:32;;;;;;;7.30;4.85;;;;;;;;;;696069;28;1788;-67
2024/02/11 01:10:52;;;;;;;7.00;4.70;;;;;;;;;;699930;28;1290;-67
2024/02/11 01:11:12;;;;;;;7.43;4.85;;;;;;;;;;700205;28;1479;-67
2024/02/11 01:11:33;;;;;;;7.10;4.77;;;;;;;;;;698856;28;2045;-67
2024/02/11 01:11:53;;;;;;;6.67;4.90;;;;;;;;;;700050;28;1110;-66
2024/02/11 01:12:13;;;;;;;6.90;4.67;;;;;;;;;;700365;28;1379;-68
2024/02/11 01:12:33;;;;;;;6.13;4.68;;;;;;;;;;700280;28;1660;-67
2024/02/11 01:12:54;;;;;;;6.93;4.50;;;;;;;;;;700606;28;1367;-68
2024/02/11 01:13:15;;;;;;;7.63;4.85;;;;;;;;;;700005;28;4268;-68
2024/02/11 01:13:36;;;;;;;14.27;5.47;;;;;;;;;;701053;28;1742;-68
2024/02/11 01:13:56;;;;;;;10.35;5.28;;;;;;;;;;697144;28;1504;-68
2024/02/11 01:14:18;;;;;;;6.90;4.60;;;;;;;;;;700026;28;970;-68
2024/02/11 01:14:39;;;;;;;7.50;4.80;;;;;;;;;;698043;28;1818;-67
2024/02/11 01:14:59;;;;;;;7.40;4.73;;;;;;;;;;699789;28;1218;-68
2024/02/11 01:15:19;;;;;;;7.03;4.85;;;;;;;;;;700712;28;1292;-67
2024/02/11 01:15:40;;;;;;;7.30;4.57;;;;;;;;;;700838;28;1834;-69
2024/02/11 01:16:01;;;;;;;6.40;4.68;;;;;;;;;;704341;28;1272;-69
2024/02/11 01:16:21;;;;;;;6.53;4.70;;;;;;;;;;700732;28;4574;-69
2024/02/11 01:16:42;;;;;;;6.95;4.80;;;;;;;;;;703167;28;1354;-69
2024/02/11 01:17:02;;;;;;;8.03;4.83;;;;;;;;;;706149;28;797;-68
2024/02/11 01:17:23;;;;;;;8.30;5.03;;;;;;;;;;703841;28;1519;-68
2024/02/11 01:17:44;;;;;;;10.03;5.20;;;;;;;;;;706087;28;871;-69
2024/02/11 01:18:06;;;;;;;7.22;4.70;;;;;;;;;;703932;28;824;-70
2024/02/11 01:18:26;;;;;;;6.60;4.70;;;;;;;;;;700340;28;1896;-69
2024/02/11 01:18:47;;;;;;;7.20;4.78;;;;;;;;;;701316;28;1420;-68
2024/02/11 01:19:07;;;;;;;7.50;4.60;;;;;;;;;;700363;28;1249;-69
2024/02/11 01:19:27;;;;;;;6.30;4.50;;;;;;;;;;700942;28;4230;-70
2024/02/11 01:19:47;;;;;;;6.77;4.90;;;;;;;;;;702549;28;816;-70
2024/02/11 01:20:16;;;;;;;6.57;4.80;;;;;;;;;;702135;28;802;-69
2024/02/11 01:20:36;;;;;;;6.10;4.90;;;;;;;;;;700751;28;1421;-68
2024/02/11 01:20:56;;;;;;;6.73;5.00;;;;;;;;;;704692;28;923;-69
2024/02/11 01:21:16;;;;;;;8.18;4.97;;;;;;;;;;703928;28;832;-69
2024/02/11 01:21:37;;;;;;;8.20;4.70;;;;;;;;;;703102;28;1687;-69
2024/02/11 01:21:57;;;;;;;7.50;4.70;;;;;;;;;;702501;28;847;-68
2024/02/11 01:22:17;;;;;;;7.30;4.75;;;;;;;;;;700204;28;4413;-66
2024/02/11 01:22:40;;;;;;;7.63;4.60;;;;;;;;;;698901;28;1526;-66
2024/02/11 01:23:00;;;;;;;6.97;4.60;;;;;;;;;;700057;28;1192;-67
2024/02/11 01:23:20;;;;;;;6.67;4.57;;;;;;;;;;696693;28;1549;-69
2024/02/11 01:23:40;;;;;;;6.73;4.40;;;;;;;;;;695864;28;1726;-68
2024/02/11 01:24:01;;;;;;;7.55;4.72;;;;;;;;;;694086;28;1479;-68
2024/02/11 01:24:21;;;;;;;7.80;4.43;;;;;;;;;;695717;28;1958;-68
2024/02/11 01:24:42;;;;;;;7.83;4.50;;;;;;;;;;694055;28;1994;-70
2024/02/11 01:25:02;;;;;;;7.07;4.23;;;;;;;;;;699402;28;920;-69
2024/02/11 01:25:22;;;;;;;6.20;4.30;;;;;;;;;;700822;28;4255;-65
2024/02/11 01:25:44;;;;;;;5.97;4.20;;;;;;;;;;700584;28;1117;-67
2024/02/11 01:26:04;;;;;;;6.32;4.22;;;;;;;;;;702925;28;990;-67
2024/02/11 01:26:24;;;;;;;8.80;4.70;;;;;;;;;;703083;28;1947;-67
2024/02/11 01:26:45;;;;;;;8.60;5.13;;;;;;;;;;703481;28;1455;-66
2024/02/11 01:27:05;;;;;;;7.70;4.90;;;;;;;;;;705773;28;951;-69
2024/02/11 01:27:25;;;;;;;8.98;4.78;;;;;;;;;;702909;28;1924;-69
2024/02/11 01:27:46;;;;;;;6.47;4.53;;;;;;;;;;705783;28;781;-69
2024/02/11 01:28:07;;;;;;;6.80;4.70;;;;;;;;;;706813;28;887;-69
2024/02/11 01:28:30;;;;;;;7.60;4.57;;;;;;;;;;700616;28;4320;-69
2024/02/11 01:28:50;;;;;;;7.38;5.10;;;;;;;;;;700235;28;880;-69
2024/02/11 01:29:11;;;;;;;7.07;4.80;;;;;;;;;;700784;28;907;-69
2024/02/11 01:29:32;;;;;;;6.45;4.68;;;;;;;;;;701617;28;1934;-69
2024/02/11 01:29:52;;;;;;;7.30;4.73;;;;;;;;;;703055;28;932;-69
2024/02/11 01:30:13;;;;;;;6.50;4.60;;;;;;;;;;703185;28;1249;-69
2024/02/11 01:30:34;;;;;;;6.40;4.80;;;;;;;;;;703418;28;1655;-70
2024/02/11 01:30:54;;;;;;;6.57;4.80;;;;;;;;;;700971;28;1230;-69
2024/02/11 01:31:14;;;;;;;6.87;4.97;;;;;;;;;;700397;28;4417;-69
2024/02/11 01:31:35;;;;;;;6.60;4.70;;;;;;;;;;700367;28;1488;-69
2024/02/11 01:31:55;;;;;;;7.75;4.60;;;;;;;;;;699778;28;916;-69
2024/02/11 01:32:15;;;;;;;7.27;4.33;;;;;;;;;;700564;28;832;-69
2024/02/11 01:32:35;;;;;;;7.03;4.60;;;;;;;;;;698696;28;1811;-69
2024/02/11 01:32:57;;;;;;;7.32;5.03;;;;;;;;;;704282;28;1017;-66
2024/02/11 01:33:17;;;;;;;6.53;4.90;;;;;;;;;;704868;28;1359;-67
2024/02/11 01:33:38;;;;;;;6.50;4.75;;;;;;;;;;702301;28;1770;-68
2024/02/11 01:33:58;;;;;;;7.43;4.60;;;;;;;;;;704986;28;904;-69
2024/02/11 01:34:18;;;;;;;7.50;4.70;;;;;;;;;;702197;28;4371;-69
2024/02/11 01:34:39;;;;;;;6.95;4.80;;;;;;;;;;699628;28;1450;-69
2024/02/11 01:34:59;;;;;;;6.07;4.60;;;;;;;;;;702098;28;1446;-69
2024/02/11 01:35:19;;;;;;;6.47;4.50;;;;;;;;;;702467;28;997;-69
2024/02/11 01:35:41;;;;;;;7.00;4.65;;;;;;;;;;700865;28;1024;-69
2024/02/11 01:36:02;;;;;;;6.50;4.25;;;;;;;;;;701477;28;1368;-68
2024/02/11 01:36:22;;;;;;;6.37;4.07;;;;;;;;;;704292;28;1206;-69
2024/02/11 01:36:45;;;;;;;6.18;4.43;;;;;;;;;;702571;28;1856;-68
2024/02/11 01:37:07;;;;;;;6.43;4.75;;;;;;;;;;703647;28;905;-69
2024/02/11 01:37:27;;;;;;;7.07;4.50;;;;;;;;;;701856;28;4276;-69
2024/02/11 01:37:48;;;;;;;7.80;4.87;;;;;;;;;;705053;28;1312;-69
2024/02/11 01:38:09;;;;;;;7.10;4.68;;;;;;;;;;701267;28;1306;-68
2024/02/11 01:38:30;;;;;;;7.32;4.60;;;;;;;;;;699007;28;1830;-69
2024/02/11 01:38:53;;;;;;;7.85;4.97;;;;;;;;;;702336;28;1169;-66
2024/02/11 01:39:16;;;;;;;7.75;4.55;;;;;;;;;;702572;28;987;-66
2024/02/11 01:39:38;;;;;;;7.40;4.30;;;;;;;;;;698052;28;1661;-67
2024/02/11 01:39:58;;;;;;;6.07;4.43;;;;;;;;;;702874;28;1154;-66
2024/02/11 01:40:19;;;;;;;6.60;4.60;;;;;;;;;;703911;28;4245;-67
2024/02/11 01:40:40;;;;;;;8.70;4.90;;;;;;;;;;705125;28;1449;-69
2024/02/11 01:41:00;;;;;;;6.40;4.35;;;;;;;;;;704766;28;892;-66
2024/02/11 01:41:21;;;;;;;7.87;4.83;;;;;;;;;;704792;28;904;-66
2024/02/11 01:41:41;;;;;;;6.60;4.50;;;;;;;;;;702715;28;1933;-69
2024/02/11 01:42:03;;;;;;;6.35;4.47;;;;;;;;;;703701;28;770;-69
2024/02/11 01:42:23;;;;;;;6.75;4.35;;;;;;;;;;703546;28;726;-69
2024/02/11 01:42:47;;;;;;;6.35;4.20;;;;;;;;;;703108;28;2240;-68
2024/02/11 01:43:09;;;;;;;6.97;4.28;;;;;;;;;;704344;28;1041;-69
2024/02/11 01:43:29;;;;;;;6.65;4.30;;;;;;;;;;698770;28;4610;-68
2024/02/11 01:43:50;;;;;;;6.63;4.37;;;;;;;;;;701057;28;971;-68
2024/02/11 01:44:12;;;;;;;6.43;4.37;;;;;;;;;;701885;28;869;-69
2024/02/11 01:44:32;;;;;;;6.80;4.55;;;;;;;;;;700249;28;2015;-69
2024/02/11 01:44:54;;;;;;;9.27;4.43;;;;;;;;;;701243;28;1245;-70
2024/02/11 01:45:17;;;;;;;8.38;4.38;;;;;;;;;;700693;28;1035;-69
2024/02/11 01:45:37;;;;;;;7.30;4.53;;;;;;;;;;697902;28;1806;-69
2024/02/11 01:45:57;;;;;;;7.10;4.43;;;;;;;;;;702432;28;916;-69
2024/02/11 01:46:17;;;;;;;7.13;4.30;;;;;;;;;;700203;28;4322;-66
2024/02/11 01:46:38;;;;;;;7.00;4.30;;;;;;;;;;699987;28;1565;-66
2024/02/11 01:47:00;;;;;;;6.57;4.70;;;;;;;;;;702987;28;971;-67
2024/02/11 01:47:20;;;;;;;6.20;4.30;;;;;;;;;;704532;28;924;-67
2024/02/11 01:47:43;;;;;;;5.57;4.10;;;;;;;;;;703119;28;1930;-67
2024/02/11 01:48:07;;;;;;;6.97;4.28;;;;;;;;;;705204;28;840;-70
2024/02/11 01:48:30;;;;;;;6.65;4.18;;;;;;;;;;702268;28;1746;-69
2024/02/11 01:48:51;;;;;;;6.65;4.40;;;;;;;;;;702630;28;1349;-69
2024/02/11 01:49:11;;;;;;;7.17;4.30;;;;;;;;;;704030;27;4540;-69
2024/02/11 01:49:32;;;;;;;6.32;4.18;;;;;;;;;;703255;27;1512;-69
2024/02/11 01:49:52;;;;;;;6.07;3.97;;;;;;;;;;705916;27;905;-70
2024/02/11 01:50:15;;;;;;;6.57;4.00;;;;;;;;;;701888;28;1015;-69
2024/02/11 01:50:36;;;;;;;5.70;3.97;;;;;;;;;;699662;28;991;-69
2024/02/11 01:50:56;;;;;;;6.38;4.05;;;;;;;;;;700085;28;1296;-71
2024/02/11 01:51:17;;;;;;;6.23;4.30;;;;;;;;;;700963;28;1371;-69
2024/02/11 01:51:42;;;;;;;5.43;4.10;;;;;;;;;;698189;28;1773;-68
2024/02/11 01:52:05;;;;;;;6.40;4.13;;;;;;;;;;703256;28;810;-69
2024/02/11 01:52:28;;;;;;;6.82;4.45;;;;;;;;;;698392;28;4249;-69
2024/02/11 01:52:48;;;;;;;7.13;4.93;;;;;;;;;;701192;28;1277;-69
2024/02/11 01:53:09;;;;;;;6.77;4.63;;;;;;;;;;701630;28;782;-69
2024/02/11 01:53:30;;;;;;;6.00;4.35;;;;;;;;;;698636;28;2087;-69
2024/02/11 01:53:50;;;;;;;6.75;4.28;;;;;;;;;;699876;28;845;-69
2024/02/11 01:54:12;;;;;;;5.83;4.20;;;;;;;;;;697578;28;1334;-69
2024/02/11 01:54:34;;;;;;;7.05;4.53;;;;;;;;;;696744;28;1710;-69
2024/02/11 01:54:54;;;;;;;7.00;4.45;;;;;;;;;;699759;28;833;-69
2024/02/11 01:55:18;;;;;;;6.97;4.57;;;;;;;;;;699773;28;4278;-68
2024/02/11 01:55:40;;;;;;;7.97;4.70;;;;;;;;;;699625;28;2120;-69
2024/02/11 01:56:01;;;;;;;7.45;4.40;;;;;;;;;;699042;28;1396;-69
2024/02/11 01:56:23;;;;;;;8.50;4.60;;;;;;;;;;698677;28;1213;-69
2024/02/11 01:56:44;;;;;;;8.00;4.30;;;;;;;;;;698984;28;1485;-69
2024/02/11 01:57:05;;;;;;;5.95;4.05;;;;;;;;;;699792;28;971;-69
2024/02/11 01:57:26;;;;;;;7.35;4.65;;;;;;;;;;699256;28;2368;-68
2024/02/11 01:57:47;;;;;;;7.10;4.80;;;;;;;;;;702236;28;1420;-69
2024/02/11 01:58:07;;;;;;;7.30;4.80;;;;;;;;;;702713;27;825;-69
2024/02/11 01:58:28;;;;;;;6.22;4.20;;;;;;;;;;703088;27;4203;-69
2024/02/11 01:58:49;;;;;;;7.13;4.22;;;;;;;;;;704429;27;825;-69
2024/02/11 01:59:09;;;;;;;7.07;4.60;;;;;;;;;;703458;28;874;-68
2024/02/11 01:59:32;;;;;;;6.90;4.20;;;;;;;;;;703571;27;1831;-69
2024/02/11 01:59:52;;;;;;;5.55;3.95;;;;;;;;;;706751;27;828;-69
2024/02/11 02:00:13;;;;;;;6.97;4.20;;;;;;;;;;705107;27;879;-68
2024/02/11 02:00:34;;;;;;;7.85;4.40;;;;;;;;;;703017;27;1642;-68
2024/02/11 02:00:54;;;;;;;7.20;4.28;;;;;;;;;;705679;27;1387;-70
2024/02/11 02:01:17;;;;;;;5.75;4.18;;;;;;;;;;703498;28;4282;-69
2024/02/11 02:01:37;;;;;;;6.32;4.25;;;;;;;;;;704183;27;3533;-70
2024/02/11 02:01:58;;;;;;;6.20;4.57;;;;;;;;;;705270;27;1060;-69
2024/02/11 02:02:20;;;;;;;6.30;4.30;;;;;;;;;;702953;28;869;-69
2024/02/11 02:02:41;;;;;;;5.80;4.10;;;;;;;;;;704689;27;1915;-69
2024/02/11 02:03:03;;;;;;;5.82;4.25;;;;;;;;;;705389;27;962;-69
2024/02/11 02:03:24;;;;;;;6.45;4.10;;;;;;;;;;703986;27;880;-68
2024/02/11 02:03:45;;;;;;;6.38;4.40;;;;;;;;;;702452;28;2137;-67
2024/02/11 02:04:06;;;;;;;5.97;3.97;;;;;;;;;;704601;27;1436;-69
2024/02/11 02:04:26;;;;;;;7.00;4.10;;;;;;;;;;702442;27;4425;-69
2024/02/11 02:04:47;;;;;;;6.33;4.10;;;;;;;;;;703707;27;924;-69
2024/02/11 02:05:07;;;;;;;6.25;4.47;;;;;;;;;;701881;28;915;-67
2024/02/11 02:05:27;;;;;;;6.50;4.50;;;;;;;;;;700354;28;1789;-69
2024/02/11 02:05:48;;;;;;;8.37;4.53;;;;;;;;;;698620;28;1429;-69
2024/02/11 02:06:10;;;;;;;7.18;4.47;;;;;;;;;;699691;28;814;-69
2024/02/11 02:06:30;;;;;;;7.28;4.60;;;;;;;;;;695416;28;1797;-68
2024/02/11 02:06:50;;;;;;;8.67;4.53;;;;;;;;;;694670;28;900;-66
2024/02/11 02:07:10;;;;;;;8.53;4.70;;;;;;;;;;695679;28;4506;-66
2024/02/11 02:07:31;;;;;;;8.07;4.55;;;;;;;;;;692714;28;1787;-66
2024/02/11 02:07:55;;;;;;;6.20;4.23;;;;;;;;;;697250;28;920;-67
2024/02/11 02:08:16;;;;;;;8.23;4.30;;;;;;;;;;698106;28;826;-70
2024/02/11 02:08:36;;;;;;;8.57;4.67;;;;;;;;;;697606;28;1551;-69
2024/02/11 02:08:59;;;;;;;7.15;4.45;;;;;;;;;;698016;28;1296;-70
2024/02/11 02:09:19;;;;;;;6.32;4.10;;;;;;;;;;698974;28;1035;-70
2024/02/11 02:09:39;;;;;;;5.88;4.10;;;;;;;;;;701033;28;1785;-69